sensor_id;sensor_type;location;lat;lon;timestamp;P1;durP1;ratioP1;P2;durP2;ratioP2
21569;SDS011;57598;50.888;4.746;2022-12-07T07:46:43;45.08;;;41.28;;
21569;SDS011;57598;50.888;4.746;2022-12-07T07:49:11;45.85;;;41.95;;
21569;SDS011;57598;50.888;4.746;2022-12-07T07:51:38;44.35;;;40.65;;
21569;SDS011;57598;50.888;4.746;2022-12-07T07:54:05;45.55;;;41.85;;
21569;SDS011;57598;50.888;4.746;2022-12-07T07:56:33;47.55;;;43.55;;
21569;SDS011;57598;50.888;4.746;2022-12-07T07:59:00;46.42;;;42.65;;
21569;SDS011;57598;50.888;4.746;2022-12-07T08:01:27;46.00;;;42.22;;
21569;SDS011;57598;50.888;4.746;2022-12-07T08:03:56;46.10;;;42.30;;
21569;SDS011;57598;50.888;4.746;2022-12-07T08:06:23;48.95;;;45.13;;
21569;SDS011;57598;50.888;4.746;2022-12-07T08:08:50;45.55;;;41.85;;
21569;SDS011;57598;50.888;4.746;2022-12-07T08:11:18;47.17;;;43.38;;
21569;SDS011;57598;50.888;4.746;2022-12-07T08:13:46;46.10;;;42.40;;
21569;SDS011;57598;50.888;4.746;2022-12-07T08:16:13;45.40;;;41.70;;
21569;SDS011;57598;50.888;4.746;2022-12-07T08:18:41;45.92;;;42.13;;
21569;SDS011;57598;50.888;4.746;2022-12-07T08:21:11;47.60;;;43.80;;
21569;SDS011;57598;50.888;4.746;2022-12-07T08:23:39;45.45;;;41.75;;
21569;SDS011;57598;50.888;4.746;2022-12-07T08:26:08;45.88;;;42.17;;
21569;SDS011;57598;50.888;4.746;2022-12-07T08:28:35;45.40;;;41.60;;
21569;SDS011;57598;50.888;4.746;2022-12-07T08:31:03;43.63;;;40.03;;
21569;SDS011;57598;50.888;4.746;2022-12-07T08:33:31;45.15;;;41.45;;
21569;SDS011;57598;50.888;4.746;2022-12-07T08:35:59;43.92;;;40.22;;
21569;SDS011;57598;50.888;4.746;2022-12-07T08:38:28;43.00;;;39.40;;
21569;SDS011;57598;50.888;4.746;2022-12-07T08:41:01;41.20;;;37.70;;
21569;SDS011;57598;50.888;4.746;2022-12-07T08:43:30;43.60;;;40.00;;
21569;SDS011;57598;50.888;4.746;2022-12-07T08:46:06;42.42;;;38.92;;
21569;SDS011;57598;50.888;4.746;2022-12-07T08:48:35;41.20;;;37.80;;
21569;SDS011;57598;50.888;4.746;2022-12-07T08:54:19;41.53;;;38.03;;
21569;SDS011;57598;50.888;4.746;2022-12-07T08:56:47;40.58;;;37.20;;
21569;SDS011;57598;50.888;4.746;2022-12-07T08:59:15;42.42;;;39.03;;
21569;SDS011;57598;50.888;4.746;2022-12-07T09:01:43;42.22;;;38.83;;
21569;SDS011;57598;50.888;4.746;2022-12-07T09:04:10;41.40;;;38.10;;
21569;SDS011;57598;50.888;4.746;2022-12-07T09:06:38;42.53;;;39.13;;
21569;SDS011;57598;50.888;4.746;2022-12-07T09:09:05;42.50;;;38.75;;
21569;SDS011;57598;50.888;4.746;2022-12-07T09:11:34;40.47;;;37.28;;
21569;SDS011;57598;50.888;4.746;2022-12-07T09:14:02;39.78;;;36.58;;
21569;SDS011;57598;50.888;4.746;2022-12-07T09:16:29;40.78;;;37.67;;
21569;SDS011;57598;50.888;4.746;2022-12-07T09:18:56;40.25;;;37.20;;
21569;SDS011;57598;50.888;4.746;2022-12-07T09:21:23;41.50;;;38.40;;
21569;SDS011;57598;50.888;4.746;2022-12-07T09:23:51;40.72;;;37.63;;
21569;SDS011;57598;50.888;4.746;2022-12-07T09:26:18;41.63;;;38.42;;
21569;SDS011;57598;50.888;4.746;2022-12-07T09:28:47;41.45;;;38.28;;
21569;SDS011;57598;50.888;4.746;2022-12-07T09:31:14;42.67;;;38.42;;
21569;SDS011;57598;50.888;4.746;2022-12-07T09:33:41;40.55;;;37.55;;
21569;SDS011;57598;50.888;4.746;2022-12-07T09:36:09;40.45;;;37.45;;
21569;SDS011;57598;50.888;4.746;2022-12-07T09:38:37;42.08;;;38.97;;
21569;SDS011;57598;50.888;4.746;2022-12-07T09:41:05;41.25;;;38.15;;
21569;SDS011;57598;50.888;4.746;2022-12-07T09:43:33;42.75;;;39.55;;
21569;SDS011;57598;50.888;4.746;2022-12-07T09:46:03;41.75;;;38.65;;
21569;SDS011;57598;50.888;4.746;2022-12-07T09:48:31;39.83;;;36.83;;
21569;SDS011;57598;50.888;4.746;2022-12-07T09:51:00;40.72;;;37.72;;
21569;SDS011;57598;50.888;4.746;2022-12-07T09:53:30;40.42;;;37.42;;
21569;SDS011;57598;50.888;4.746;2022-12-07T09:56:00;40.05;;;37.15;;
21569;SDS011;57598;50.888;4.746;2022-12-07T09:58:28;40.58;;;37.47;;
21569;SDS011;57598;50.888;4.746;2022-12-07T10:00:57;38.78;;;35.97;;
21569;SDS011;57598;50.888;4.746;2022-12-07T10:03:27;38.72;;;36.03;;
21569;SDS011;57598;50.888;4.746;2022-12-07T10:05:55;38.95;;;36.25;;
21569;SDS011;57598;50.888;4.746;2022-12-07T10:08:22;38.55;;;35.95;;
21569;SDS011;57598;50.888;4.746;2022-12-07T10:10:51;46.88;;;43.55;;
21569;SDS011;57598;50.888;4.746;2022-12-07T10:13:19;38.33;;;35.83;;
21569;SDS011;57598;50.888;4.746;2022-12-07T10:15:48;37.85;;;35.35;;
21569;SDS011;57598;50.888;4.746;2022-12-07T10:21:03;37.25;;;34.85;;
21569;SDS011;57598;50.888;4.746;2022-12-07T10:23:32;35.85;;;33.65;;
21569;SDS011;57598;50.888;4.746;2022-12-07T10:26:03;36.05;;;33.85;;
21569;SDS011;57598;50.888;4.746;2022-12-07T10:28:46;34.83;;;32.83;;
21569;SDS011;57598;50.888;4.746;2022-12-07T10:31:15;32.70;;;30.80;;
21569;SDS011;57598;50.888;4.746;2022-12-07T10:33:48;32.63;;;30.73;;
21569;SDS011;57598;50.888;4.746;2022-12-07T10:36:18;32.45;;;30.55;;
21569;SDS011;57598;50.888;4.746;2022-12-07T10:38:46;32.67;;;30.77;;
21569;SDS011;57598;50.888;4.746;2022-12-07T10:41:14;32.53;;;30.70;;
21569;SDS011;57598;50.888;4.746;2022-12-07T10:43:48;33.88;;;31.88;;
21569;SDS011;57598;50.888;4.746;2022-12-07T10:49:03;32.28;;;30.48;;
21569;SDS011;57598;50.888;4.746;2022-12-07T10:51:36;30.95;;;29.15;;
21569;SDS011;57598;50.888;4.746;2022-12-07T10:54:10;27.30;;;25.80;;
21569;SDS011;57598;50.888;4.746;2022-12-07T10:59:47;31.10;;;29.38;;
21569;SDS011;57598;50.888;4.746;2022-12-07T11:02:25;25.77;;;24.38;;
21569;SDS011;57598;50.888;4.746;2022-12-07T11:05:00;27.40;;;25.90;;
21569;SDS011;57598;50.888;4.746;2022-12-07T11:07:34;26.65;;;25.15;;
21569;SDS011;57598;50.888;4.746;2022-12-07T11:10:05;27.92;;;26.33;;
21569;SDS011;57598;50.888;4.746;2022-12-07T11:12:42;29.23;;;27.52;;
21569;SDS011;57598;50.888;4.746;2022-12-07T11:15:17;30.40;;;28.70;;
21569;SDS011;57598;50.888;4.746;2022-12-07T11:17:46;31.73;;;29.63;;
21569;SDS011;57598;50.888;4.746;2022-12-07T11:20:20;32.03;;;30.23;;
21569;SDS011;57598;50.888;4.746;2022-12-07T11:22:54;32.40;;;30.60;;
21569;SDS011;57598;50.888;4.746;2022-12-07T11:25:25;33.17;;;31.17;;
21569;SDS011;57598;50.888;4.746;2022-12-07T11:28:00;34.13;;;32.13;;
21569;SDS011;57598;50.888;4.746;2022-12-07T11:30:31;34.72;;;32.72;;
21569;SDS011;57598;50.888;4.746;2022-12-07T11:33:04;34.58;;;32.58;;
21569;SDS011;57598;50.888;4.746;2022-12-07T11:35:37;34.85;;;32.85;;
21569;SDS011;57598;50.888;4.746;2022-12-07T11:38:12;35.60;;;33.50;;
21569;SDS011;57598;50.888;4.746;2022-12-07T11:40:42;36.28;;;34.13;;
21569;SDS011;57598;50.888;4.746;2022-12-07T11:43:13;35.65;;;33.55;;
21569;SDS011;57598;50.888;4.746;2022-12-07T11:45:43;32.95;;;31.05;;
21569;SDS011;57598;50.888;4.746;2022-12-07T11:48:11;31.27;;;29.48;;
21569;SDS011;57598;50.888;4.746;2022-12-07T11:50:41;29.02;;;27.42;;
21569;SDS011;57598;50.888;4.746;2022-12-07T11:53:14;28.42;;;26.83;;
21569;SDS011;57598;50.888;4.746;2022-12-07T11:55:43;31.75;;;29.35;;
21569;SDS011;57598;50.888;4.746;2022-12-07T11:58:15;28.45;;;26.85;;
21569;SDS011;57598;50.888;4.746;2022-12-07T12:00:46;29.20;;;27.52;;
21569;SDS011;57598;50.888;4.746;2022-12-07T12:03:15;29.58;;;27.88;;
21569;SDS011;57598;50.888;4.746;2022-12-07T12:05:43;28.42;;;26.83;;
21569;SDS011;57598;50.888;4.746;2022-12-07T12:08:13;27.98;;;26.38;;
21569;SDS011;57598;50.888;4.746;2022-12-07T12:10:45;25.40;;;24.00;;
21569;SDS011;57598;50.888;4.746;2022-12-07T12:15:59;24.10;;;22.80;;
21569;SDS011;57598;50.888;4.746;2022-12-07T12:18:40;24.27;;;22.88;;
21569;SDS011;57598;50.888;4.746;2022-12-07T12:21:14;25.15;;;23.67;;
21569;SDS011;57598;50.888;4.746;2022-12-07T12:23:44;23.80;;;22.50;;
21569;SDS011;57598;50.888;4.746;2022-12-07T12:26:14;24.55;;;23.15;;
21569;SDS011;57598;50.888;4.746;2022-12-07T12:28:49;24.88;;;23.48;;
21569;SDS011;57598;50.888;4.746;2022-12-07T12:31:28;24.95;;;23.55;;
21569;SDS011;57598;50.888;4.746;2022-12-07T12:34:00;26.10;;;24.70;;
21569;SDS011;57598;50.888;4.746;2022-12-07T12:36:42;28.25;;;26.60;;
21569;SDS011;57598;50.888;4.746;2022-12-07T12:39:13;26.80;;;25.30;;
21569;SDS011;57598;50.888;4.746;2022-12-07T12:41:54;27.30;;;25.80;;
21569;SDS011;57598;50.888;4.746;2022-12-07T12:50:23;27.25;;;25.75;;
21569;SDS011;57598;50.888;4.746;2022-12-07T12:53:01;28.67;;;27.08;;
21569;SDS011;57598;50.888;4.746;2022-12-07T12:55:46;28.50;;;26.90;;
21569;SDS011;57598;50.888;4.746;2022-12-07T12:58:34;28.70;;;27.10;;
21569;SDS011;57598;50.888;4.746;2022-12-07T13:03:54;29.20;;;27.60;;
21569;SDS011;57598;50.888;4.746;2022-12-07T13:06:31;29.05;;;27.45;;
21569;SDS011;57598;50.888;4.746;2022-12-07T13:09:00;28.08;;;26.50;;
21569;SDS011;57598;50.888;4.746;2022-12-07T13:11:31;28.17;;;26.58;;
21569;SDS011;57598;50.888;4.746;2022-12-07T13:16:41;27.25;;;25.75;;
21569;SDS011;57598;50.888;4.746;2022-12-07T13:21:54;25.02;;;23.63;;
21569;SDS011;57598;50.888;4.746;2022-12-07T13:24:21;23.65;;;22.35;;
21569;SDS011;57598;50.888;4.746;2022-12-07T13:26:51;22.45;;;21.23;;
21569;SDS011;57598;50.888;4.746;2022-12-07T13:29:23;23.45;;;22.15;;
21569;SDS011;57598;50.888;4.746;2022-12-07T13:31:50;23.05;;;21.75;;
21569;SDS011;57598;50.888;4.746;2022-12-07T13:34:28;23.55;;;22.15;;
21569;SDS011;57598;50.888;4.746;2022-12-07T13:36:56;24.42;;;23.02;;
21569;SDS011;57598;50.888;4.746;2022-12-07T13:39:24;23.05;;;21.75;;
21569;SDS011;57598;50.888;4.746;2022-12-07T13:41:53;24.55;;;23.15;;
21569;SDS011;57598;50.888;4.746;2022-12-07T13:44:22;24.60;;;23.20;;
21569;SDS011;57598;50.888;4.746;2022-12-07T13:46:51;24.15;;;22.85;;
21569;SDS011;57598;50.888;4.746;2022-12-07T13:49:21;25.13;;;23.65;;
21569;SDS011;57598;50.888;4.746;2022-12-07T13:51:49;24.92;;;23.42;;
21569;SDS011;57598;50.888;4.746;2022-12-07T13:54:17;25.00;;;23.60;;
21569;SDS011;57598;50.888;4.746;2022-12-07T13:56:47;26.10;;;24.70;;
21569;SDS011;57598;50.888;4.746;2022-12-07T13:59:17;28.02;;;26.33;;
21569;SDS011;57598;50.888;4.746;2022-12-07T14:01:46;27.85;;;26.25;;
21569;SDS011;57598;50.888;4.746;2022-12-07T14:04:17;26.67;;;25.17;;
21569;SDS011;57598;50.888;4.746;2022-12-07T14:09:17;29.38;;;27.77;;
21569;SDS011;57598;50.888;4.746;2022-12-07T14:11:45;30.42;;;28.63;;
21569;SDS011;57598;50.888;4.746;2022-12-07T14:14:14;31.23;;;29.35;;
21569;SDS011;57598;50.888;4.746;2022-12-07T14:16:54;30.23;;;28.52;;
21569;SDS011;57598;50.888;4.746;2022-12-07T14:19:41;30.27;;;28.58;;
21569;SDS011;57598;50.888;4.746;2022-12-07T14:22:15;30.33;;;28.63;;
21569;SDS011;57598;50.888;4.746;2022-12-07T14:24:46;29.88;;;28.17;;
21569;SDS011;57598;50.888;4.746;2022-12-07T14:27:17;31.52;;;29.83;;
21569;SDS011;57598;50.888;4.746;2022-12-07T14:32:20;31.25;;;29.55;;
21569;SDS011;57598;50.888;4.746;2022-12-07T14:34:57;32.63;;;30.83;;
21569;SDS011;57598;50.888;4.746;2022-12-07T14:37:24;32.20;;;30.40;;
21569;SDS011;57598;50.888;4.746;2022-12-07T14:39:52;32.95;;;31.13;;
21569;SDS011;57598;50.888;4.746;2022-12-07T14:42:19;32.78;;;30.98;;
21569;SDS011;57598;50.888;4.746;2022-12-07T14:44:47;32.45;;;30.65;;
21569;SDS011;57598;50.888;4.746;2022-12-07T14:47:14;33.33;;;31.42;;
21569;SDS011;57598;50.888;4.746;2022-12-07T14:49:43;34.33;;;32.33;;
21569;SDS011;57598;50.888;4.746;2022-12-07T14:52:12;35.65;;;33.55;;
21569;SDS011;57598;50.888;4.746;2022-12-07T14:54:40;36.33;;;34.13;;
21569;SDS011;57598;50.888;4.746;2022-12-07T14:57:09;36.55;;;34.40;;
21569;SDS011;57598;50.888;4.746;2022-12-07T14:59:36;36.55;;;34.35;;
21569;SDS011;57598;50.888;4.746;2022-12-07T15:02:03;37.88;;;35.58;;
21569;SDS011;57598;50.888;4.746;2022-12-07T15:04:31;39.05;;;36.65;;
21569;SDS011;57598;50.888;4.746;2022-12-07T15:07:00;38.75;;;36.25;;
21569;SDS011;57598;50.888;4.746;2022-12-07T15:09:27;39.25;;;36.75;;
21569;SDS011;57598;50.888;4.746;2022-12-07T15:11:55;40.20;;;37.60;;
21569;SDS011;57598;50.888;4.746;2022-12-07T15:14:22;40.10;;;37.60;;
21569;SDS011;57598;50.888;4.746;2022-12-07T15:16:49;39.97;;;37.38;;
21569;SDS011;57598;50.888;4.746;2022-12-07T15:19:17;39.40;;;36.80;;
21569;SDS011;57598;50.888;4.746;2022-12-07T15:21:46;39.75;;;37.15;;
21569;SDS011;57598;50.888;4.746;2022-12-07T15:24:14;39.10;;;36.50;;
21569;SDS011;57598;50.888;4.746;2022-12-07T15:26:42;39.92;;;37.33;;
21569;SDS011;57598;50.888;4.746;2022-12-07T15:29:09;38.47;;;35.97;;
21569;SDS011;57598;50.888;4.746;2022-12-07T15:31:36;39.70;;;37.17;;
21569;SDS011;57598;50.888;4.746;2022-12-07T15:34:04;39.30;;;36.80;;
21569;SDS011;57598;50.888;4.746;2022-12-07T15:36:32;39.05;;;36.55;;
21569;SDS011;57598;50.888;4.746;2022-12-07T15:38:59;38.95;;;36.45;;
21569;SDS011;57598;50.888;4.746;2022-12-07T15:41:28;38.97;;;36.47;;
21569;SDS011;57598;50.888;4.746;2022-12-07T15:43:56;38.97;;;36.58;;
21569;SDS011;57598;50.888;4.746;2022-12-07T15:46:40;40.00;;;37.40;;
21569;SDS011;57598;50.888;4.746;2022-12-07T15:49:09;39.45;;;36.85;;
21569;SDS011;57598;50.888;4.746;2022-12-07T15:51:37;40.40;;;37.75;;
21569;SDS011;57598;50.888;4.746;2022-12-07T15:54:05;40.35;;;37.65;;
21569;SDS011;57598;50.888;4.746;2022-12-07T15:56:34;39.53;;;36.92;;
21569;SDS011;57598;50.888;4.746;2022-12-07T15:59:01;39.33;;;36.63;;
21569;SDS011;57598;50.888;4.746;2022-12-07T16:01:29;40.50;;;37.70;;
21569;SDS011;57598;50.888;4.746;2022-12-07T16:03:56;41.03;;;38.22;;
21569;SDS011;57598;50.888;4.746;2022-12-07T16:06:25;40.67;;;37.88;;
21569;SDS011;57598;50.888;4.746;2022-12-07T16:08:52;40.33;;;37.60;;
21569;SDS011;57598;50.888;4.746;2022-12-07T16:11:20;39.60;;;36.90;;
21569;SDS011;57598;50.888;4.746;2022-12-07T16:13:49;39.17;;;36.50;;
21569;SDS011;57598;50.888;4.746;2022-12-07T16:16:17;39.55;;;36.85;;
21569;SDS011;57598;50.888;4.746;2022-12-07T16:18:45;39.67;;;37.08;;
21569;SDS011;57598;50.888;4.746;2022-12-07T16:21:13;39.38;;;36.75;;
21569;SDS011;57598;50.888;4.746;2022-12-07T16:23:40;38.78;;;36.15;;
21569;SDS011;57598;50.888;4.746;2022-12-07T16:26:08;38.85;;;36.15;;
21569;SDS011;57598;50.888;4.746;2022-12-07T16:28:36;42.17;;;39.17;;
21569;SDS011;57598;50.888;4.746;2022-12-07T16:31:05;38.92;;;36.33;;
21569;SDS011;57598;50.888;4.746;2022-12-07T16:33:33;38.75;;;36.15;;
21569;SDS011;57598;50.888;4.746;2022-12-07T16:36:02;38.90;;;36.30;;
21569;SDS011;57598;50.888;4.746;2022-12-07T16:38:29;38.95;;;36.35;;
21569;SDS011;57598;50.888;4.746;2022-12-07T16:40:57;38.25;;;35.75;;
21569;SDS011;57598;50.888;4.746;2022-12-07T16:43:24;39.10;;;36.50;;
21569;SDS011;57598;50.888;4.746;2022-12-07T16:45:51;38.90;;;36.30;;
21569;SDS011;57598;50.888;4.746;2022-12-07T16:48:20;38.88;;;36.28;;
21569;SDS011;57598;50.888;4.746;2022-12-07T16:50:47;38.35;;;35.80;;
21569;SDS011;57598;50.888;4.746;2022-12-07T16:53:15;39.67;;;37.05;;
21569;SDS011;57598;50.888;4.746;2022-12-07T16:55:43;38.50;;;35.90;;
21569;SDS011;57598;50.888;4.746;2022-12-07T16:58:10;38.30;;;35.70;;
21569;SDS011;57598;50.888;4.746;2022-12-07T17:00:38;39.55;;;36.75;;
21569;SDS011;57598;50.888;4.746;2022-12-07T17:03:05;38.65;;;35.95;;
21569;SDS011;57598;50.888;4.746;2022-12-07T17:05:36;38.50;;;35.92;;
21569;SDS011;57598;50.888;4.746;2022-12-07T17:08:04;39.43;;;36.73;;
21569;SDS011;57598;50.888;4.746;2022-12-07T17:10:32;39.55;;;36.85;;
21569;SDS011;57598;50.888;4.746;2022-12-07T17:13:00;40.45;;;37.75;;
21569;SDS011;57598;50.888;4.746;2022-12-07T17:15:27;42.03;;;39.13;;
21569;SDS011;57598;50.888;4.746;2022-12-07T17:17:54;38.88;;;36.28;;
21569;SDS011;57598;50.888;4.746;2022-12-07T17:20:22;39.55;;;36.97;;
21569;SDS011;57598;50.888;4.746;2022-12-07T17:22:51;39.95;;;37.35;;
21569;SDS011;57598;50.888;4.746;2022-12-07T17:25:19;39.28;;;36.67;;
21569;SDS011;57598;50.888;4.746;2022-12-07T17:27:46;39.17;;;36.55;;
21569;SDS011;57598;50.888;4.746;2022-12-07T17:30:14;39.60;;;36.97;;
21569;SDS011;57598;50.888;4.746;2022-12-07T17:32:41;40.35;;;37.55;;
21569;SDS011;57598;50.888;4.746;2022-12-07T17:35:09;38.47;;;35.88;;
21569;SDS011;57598;50.888;4.746;2022-12-07T17:37:36;39.63;;;36.92;;
21569;SDS011;57598;50.888;4.746;2022-12-07T17:40:05;39.15;;;36.45;;
21569;SDS011;57598;50.888;4.746;2022-12-07T17:42:33;38.08;;;35.58;;
21569;SDS011;57598;50.888;4.746;2022-12-07T17:45:05;39.20;;;36.58;;
21569;SDS011;57598;50.888;4.746;2022-12-07T17:47:32;39.97;;;37.33;;
21569;SDS011;57598;50.888;4.746;2022-12-07T17:50:00;40.17;;;37.58;;
21569;SDS011;57598;50.888;4.746;2022-12-07T17:52:27;39.42;;;36.83;;
21569;SDS011;57598;50.888;4.746;2022-12-07T17:55:14;39.75;;;37.15;;
21569;SDS011;57598;50.888;4.746;2022-12-07T17:57:41;39.97;;;37.38;;
21569;SDS011;57598;50.888;4.746;2022-12-07T18:00:09;39.22;;;36.70;;
21569;SDS011;57598;50.888;4.746;2022-12-07T18:02:36;38.60;;;36.03;;
21569;SDS011;57598;50.888;4.746;2022-12-07T18:05:04;38.60;;;36.10;;
21569;SDS011;57598;50.888;4.746;2022-12-07T18:07:31;39.40;;;36.80;;
21569;SDS011;57598;50.888;4.746;2022-12-07T18:09:59;40.15;;;37.55;;
21569;SDS011;57598;50.888;4.746;2022-12-07T18:12:28;39.83;;;37.22;;
21569;SDS011;57598;50.888;4.746;2022-12-07T18:14:55;40.10;;;37.40;;
21569;SDS011;57598;50.888;4.746;2022-12-07T18:17:25;40.65;;;37.95;;
21569;SDS011;57598;50.888;4.746;2022-12-07T18:19:52;39.63;;;37.03;;
21569;SDS011;57598;50.888;4.746;2022-12-07T18:22:19;39.45;;;36.85;;
21569;SDS011;57598;50.888;4.746;2022-12-07T18:24:47;38.95;;;36.35;;
21569;SDS011;57598;50.888;4.746;2022-12-07T18:27:14;40.08;;;37.47;;
21569;SDS011;57598;50.888;4.746;2022-12-07T18:29:43;40.25;;;37.63;;
21569;SDS011;57598;50.888;4.746;2022-12-07T18:32:10;39.72;;;37.13;;
21569;SDS011;57598;50.888;4.746;2022-12-07T18:34:47;39.58;;;36.92;;
21569;SDS011;57598;50.888;4.746;2022-12-07T18:37:30;40.25;;;37.55;;
21569;SDS011;57598;50.888;4.746;2022-12-07T18:43:21;41.35;;;38.55;;
21569;SDS011;57598;50.888;4.746;2022-12-07T18:46:10;40.60;;;37.80;;
21569;SDS011;57598;50.888;4.746;2022-12-07T18:48:44;42.08;;;39.08;;
21569;SDS011;57598;50.888;4.746;2022-12-07T18:51:23;41.70;;;38.90;;
21569;SDS011;57598;50.888;4.746;2022-12-07T18:53:56;42.10;;;39.20;;
21569;SDS011;57598;50.888;4.746;2022-12-07T20:10:30;42.25;;;39.05;;
21569;SDS011;57598;50.888;4.746;2022-12-07T20:13:05;43.03;;;39.72;;
21569;SDS011;57598;50.888;4.746;2022-12-07T20:22:21;42.50;;;39.20;;
21569;SDS011;57598;50.888;4.746;2022-12-07T20:59:43;41.30;;;38.13;;
21569;SDS011;57598;50.888;4.746;2022-12-07T21:31:09;41.00;;;37.90;;
21569;SDS011;57598;50.888;4.746;2022-12-07T21:43:32;41.05;;;38.03;;
21569;SDS011;57598;50.888;4.746;2022-12-07T21:49:36;41.35;;;38.28;;
21569;SDS011;57598;50.888;4.746;2022-12-07T21:52:46;42.40;;;39.30;;
21569;SDS011;57598;50.888;4.746;2022-12-07T21:55:54;42.33;;;39.13;;
21569;SDS011;57598;50.888;4.746;2022-12-07T22:53:43;44.25;;;40.95;;
21569;SDS011;57598;50.888;4.746;2022-12-07T22:56:26;46.13;;;42.65;;
21569;SDS011;57598;50.888;4.746;2022-12-07T22:59:11;48.35;;;44.65;;
21569;SDS011;57598;50.888;4.746;2022-12-07T23:02:16;48.47;;;44.75;;
21569;SDS011;57598;50.888;4.746;2022-12-07T23:05:06;48.00;;;44.30;;
21569;SDS011;57598;50.888;4.746;2022-12-07T23:07:48;48.85;;;45.03;;
21569;SDS011;57598;50.888;4.746;2022-12-07T23:13:47;48.25;;;44.35;;
21569;SDS011;57598;50.888;4.746;2022-12-07T23:25:26;50.13;;;45.92;;
21569;SDS011;57598;50.888;4.746;2022-12-07T23:28:06;51.83;;;47.63;;
21569;SDS011;57598;50.888;4.746;2022-12-07T23:55:10;53.28;;;48.67;;
21569;SDS011;57598;50.888;4.746;2022-12-07T23:58:06;48.45;;;44.33;;
